Авиационная погода в Закаталы

Регион: 
Погода METAR: 
UBBY 241700Z 10010KT 9999 NSC 14/06 Q1020 R33/////// NOSIG RMK MT OP
Время наблюдения
2021-10-24T17:00:00Z
Температура C
14.0
Точка росы
6.0
Направление ветра
100
Скорость ветра (узлы)
10
Метео видимость
6.21
Явления погоды
Условия полета
VFR